Data for 05/23/2014

Time Sea-Level Adjusted Pressure Absolute Pressure Temperature Relative Humidity Dew Point   
(mb) (inHg) (mb) (inHg) (C) (F) (%) (C) (F)
00:05 1020 30.12 850 25.1 13.9 56.9 50 3.7 38.6
00:10 1020 30.12 850 25.1 13.9 57 47 2.8 37
00:15 1020 30.12 850 25.1 13.6 56.6 51 3.9 39
00:20 1020 30.12 850 25.1 12.8 55 52 3.3 38
00:25 1021 30.15 850 25.1 12.7 54.8 51 3 37.4
00:30 1021 30.15 850 25.1 12.8 55.1 50 2.8 37.1
00:35 1021 30.15 850 25.1 12.8 55.1 50 2.6 36.8
00:40 1021 30.15 850 25.1 12.7 54.8 50 2.7 36.9
00:45 1020 30.12 850 25.1 12.6 54.6 51 2.8 37.1
00:50 1020 30.12 850 25.1 12.2 54 52 2.7 36.8
00:55 1020 30.12 850 25.1 11.9 53.5 51 2.3 36.1
01:00 1020 30.12 850 25.1 12 53.7 51 2.3 36.2
01:05 1020 30.12 850 25.1 12 53.6 52 2.5 36.5
01:10 1021 30.15 850 25.1 11.9 53.4 52 2.3 36.1
01:15 1021 30.15 850 25.1 11.9 53.4 52 2.5 36.5
01:20 1021 30.15 850 25.1 11.9 53.4 52 2.3 36.1
01:25 1021 30.15 850 25.1 11.8 53.2 52 2.2 36
01:30 1021 30.15 850 25.1 11.8 53.3 51 2 35.6
01:35 1021 30.15 850 25.1 12.2 53.9 49 1.8 35.2
01:40 1021 30.15 850 25.1 12.4 54.2 49 2.1 35.8
01:45 1021 30.15 850 25.1 12 53.7 52 2.4 36.4
01:50 1021 30.15 850 25.1 11.8 53.2 53 2.6 36.6
01:55 1021 30.15 850 25.1 11.5 52.6 54 2.6 36.6
02:00 1021 30.15 850 25.1 11.5 52.6 54 2.4 36.4
02:05 1021 30.15 850 25.1 11.5 52.8 55 2.9 37.2
02:10 1021 30.15 850 25.1 11.7 53 54 2.7 36.9
02:15 1021 30.15 850 25.1 11.7 53.1 55 3.1 37.5
02:20 1021 30.15 850 25.1 11.5 52.6 57 3.2 37.8
02:25 1021 30.15 850 25.1 11.3 52.3 58 3.4 38.1
02:30 1021 30.15 850 25.1 10.6 51.1 60 3.2 37.7
02:35 1021 30.15 850 25.1 10.3 50.5 63 3.5 38.3
02:40 1021 30.15 850 25.1 10.1 50.2 62 3.3 37.9
02:45 1021 30.15 850 25.1 10.4 50.7 61 3.1 37.6
02:50 1021 30.15 850 25.1 10.8 51.4 60 3.4 38.1
02:55 1021 30.15 850 25.1 10.7 51.2 63 4 39.3
03:00 1021 30.15 850 25.1 10.8 51.5 60 3.5 38.2
03:05 1021 30.15 850 25.1 11.1 52 58 3.2 37.8
03:10 1021 30.15 850 25.1 11 51.9 62 4 39.2
03:15 1021 30.15 850 25.1 11 51.8 62 4 39.2
03:20 1021 30.15 850 25.1 11 51.9 61 3.8 38.8
03:25 1021 30.15 850 25.1 11 51.8 61 3.9 38.9
03:30 1021 30.15 850 25.1 10.9 51.5 64 4.3 39.8
03:35 1021 30.15 850 25.1 10.6 51.1 64 4.2 39.6
03:40 1021 30.15 850 25.1 10.6 51.2 63 3.8 38.9
03:45 1021 30.15 850 25.1 10.6 51.1 62 3.7 38.7
03:50 1021 30.15 850 25.1 10.4 50.8 63 3.8 38.9
03:55 1021 30.15 850 25.1 10.3 50.5 62 3.4 38.1
04:00 1021 30.15 850 25.1 10.4 50.7 62 3.4 38.2
04:05 1021 30.15 850 25.1 10.3 50.6 63 3.5 38.4
04:10 1021 30.15 850 25.1 10.5 50.9 62 3.5 38.3
04:15 1021 30.15 850 25.1 10.8 51.4 60 3.5 38.3
04:20 1021 30.15 850 25.1 11 51.7 60 3.5 38.3
04:25 1021 30.15 850 25.1 10.9 51.5 62 3.8 38.9
04:30 1021 30.15 850 25.1 10.6 51.1 62 3.6 38.5
04:35 1021 30.15 850 25.1 10.5 51 62 3.6 38.4
04:40 1021 30.15 850 25.1 10.5 50.9 62 3.7 38.6
04:45 1021 30.15 850 25.1 10.4 50.7 64 4 39.1
04:50 1021 30.15 850 25.1 10.4 50.7 63 3.8 38.8
04:55 1021 30.15 850 25.1 10.4 50.7 63 3.7 38.7
05:00 1021 30.15 850 25.1 10.4 50.8 63 3.7 38.6
05:05 1021 30.15 850 25.1 10.6 51.1 62 3.6 38.5
05:10 1021 30.15 850 25.1 10.7 51.3 61 3.6 38.5
05:15 1021 30.15 850 25.1 10.8 51.5 61 3.6 38.4
05:20 1021 30.15 850 25.1 11 51.7 60 3.5 38.2
05:25 1021 30.15 850 25.1 11 51.9 59 3.4 38.1
05:30 1021 30.15 850 25.1 11.2 52.2 58 3.3 38
05:35 1021 30.15 850 25.1 11.4 52.4 57 3.3 37.9
05:40 1021 30.15 850 25.1 11.5 52.8 56 3.2 37.8
05:45 1021 30.15 850 25.1 11.6 52.9 57 3.4 38.1
05:50 1021 30.15 850 25.1 11.3 52.4 59 3.8 38.8
05:55 1021 30.15 850 25.1 10.7 51.3 61 3.4 38.2
06:00 1021 30.15 850 25.1 10.7 51.2 60 3.3 38
06:05 1021 30.15 850 25.1 11 51.9 61 3.7 38.7
06:10 1021 30.15 850 25.1 11.2 52.2 60 3.9 39
06:15 1021 30.15 850 25.1 11.6 52.8 60 4.1 39.3
06:20 1021 30.15 850 25.1 11.9 53.3 59 4.2 39.5
06:25 1021 30.15 850 25.1 12.1 53.8 59 4.3 39.8
06:30 1021 30.15 850 25.1 12.3 54.2 58 4.3 39.8
06:35 1021 30.15 850 25.1 12.6 54.6 58 4.5 40.1
06:40 1021 30.15 850 25.1 12.9 55.2 57 4.6 40.3
06:45 1021 30.15 850 25.1 12.9 55.3 57 4.7 40.4
06:50 1021 30.15 850 25.1 13.4 56.2 55 4.7 40.5
06:55 1021 30.15 850 25.1 13.7 56.7 54 4.7 40.4
07:00 1021 30.15 850 25.1 14.1 57.4 54 5 41
07:05 1021 30.15 850 25.1 14.5 58.1 55 5.6 42.1
07:10 1021 30.15 850 25.1 14.9 58.7 53 5.5 41.9
07:15 1021 30.15 850 25.1 15 59 51 5.1 41.3
07:20 1021 30.15 850 25.1 15.6 60.1 50 5.4 41.8
07:25 1021 30.15 850 25.1 16.1 61 48 5.1 41.3
07:30 1021 30.15 850 25.1 16.6 61.8 47 5.3 41.6
07:35 1021 30.15 850 25.1 16.5 61.7 45 4.7 40.5
07:40 1021 30.15 850 25.1 16.7 62.1 46 5 41
07:45 1021 30.15 850 25.1 17.5 63.5 43 4.9 40.9
07:50 1021 30.15 850 25.1 18.1 64.5 39 3.9 39
07:55 1021 30.15 850 25.1 18.7 65.7 38 4.4 40
08:00 1021 30.15 850 25.1 19.1 66.3 36 3.7 38.7
08:05 1021 30.15 850 25.1 19.3 66.7 36 4.1 39.3
08:10 1021 30.15 850 25.1 19.6 67.4 34 3.4 38.1
08:15 1021 30.15 850 25.1 20 67.9 35 4.4 39.9
08:20 1021 30.15 850 25.1 19.1 66.4 36 3.9 39.1
08:25 1021 30.15 850 25.1 19.7 67.4 33 3.1 37.6
08:30 1021 30.15 850 25.1 20.3 68.5 34 4.1 39.3
08:35 1021 30.15 850 25.1 19.8 67.7 34 3.9 38.9
08:40 1021 30.15 850 25.1 19.4 66.9 35 3.6 38.5
08:45 1020 30.12 850 25.1 20.5 68.8 33 3.7 38.7
08:50 1020 30.12 850 25.1 21.1 70 36 5.5 41.8
08:55 1020 30.12 850 25.1 20.8 69.4 34 4.6 40.3
09:00 1020 30.12 850 25.1 20.9 69.7 35 5.3 41.5
09:05 1020 30.12 850 25.1 20.7 69.2 37 5.5 41.9
09:10 1020 30.12 849 25.07 20.6 69.1 36 5.2 41.4
09:15 1020 30.12 849 25.07 20.8 69.5 35 4.8 40.7
09:20 1020 30.12 849 25.07 21 69.8 33 4.2 39.6
09:25 1020 30.12 849 25.07 21.2 70.2 31 3.8 38.8
09:30 1020 30.12 849 25.07 21 69.7 34 4.6 40.2
09:35 1020 30.12 849 25.07 21.3 70.4 35 5.5 41.9
09:40 1020 30.12 849 25.07 21.6 70.9 35 5.5 41.9
09:45 1020 30.12 849 25.07 21.3 70.3 37 6.3 43.3
09:50 1020 30.12 849 25.07 21.5 70.6 35 5.4 41.7
09:55 1020 30.12 849 25.07 22.1 71.9 33 5.4 41.7
10:00 1020 30.12 849 25.07 22.2 71.9 32 4.9 40.7
10:05 1020 30.12 849 25.07 22.4 72.2 33 5.4 41.6
10:10 1020 30.12 849 25.07 22.4 72.3 32 5.1 41.1
10:15 1020 30.12 849 25.07 22.7 72.8 31 4.8 40.6
10:20 1020 30.12 849 25.07 22.6 72.6 29 3.9 39.1
10:25 1020 30.12 849 25.07 21.8 71.2 31 4.2 39.6
10:30 1020 30.12 849 25.07 22.5 72.5 30 4.1 39.4
10:35 1020 30.12 849 25.07 22.9 73.2 29 3.9 39
10:40 1020 30.12 849 25.07 23.1 73.6 28 3.8 38.9
10:45 1020 30.12 849 25.07 23.2 73.7 29 4.2 39.5
10:50 1020 30.12 849 25.07 23 73.4 29 4.1 39.4
10:55 1019 30.09 849 25.07 23.4 74.2 29 4.6 40.2
11:00 1019 30.09 849 25.07 23.7 74.7 28 4.4 39.9
11:05 1019 30.09 849 25.07 23.4 74.1 28 4.1 39.3
11:10 1019 30.09 848 25.04 23.1 73.5 30 4.6 40.3
11:15 1019 30.09 848 25.04 23.2 73.7 29 4.2 39.5
11:20 1019 30.09 848 25.04 22.6 72.6 30 4.3 39.8
11:25 1019 30.09 848 25.04 23.5 74.3 27 3.6 38.6
11:30 1019 30.09 848 25.04 24.1 75.4 28 4.6 40.3
11:35 1019 30.09 848 25.04 24.4 76 26 3.9 39
11:40 1019 30.09 848 25.04 24.6 76.3 27 4.5 40
11:45 1019 30.09 848 25.04 24.6 76.3 26 4.2 39.6
11:50 1019 30.09 848 25.04 25.2 77.4 26 4.3 39.8
11:55 1019 30.09 848 25.04 25.5 77.9 25 4.1 39.5
12:00 1019 30.09 848 25.04 25.1 77.2 27 4.9 40.8
12:05 1019 30.09 848 25.04 24.3 75.7 27 4.5 40.1
12:10 1019 30.09 848 25.04 23.8 74.8 29 4.8 40.7
12:15 1019 30.09 848 25.04 24.1 75.4 27 4.1 39.3
12:20 1018 30.06 848 25.04 24.9 76.8 26 4.3 39.7
12:25 1018 30.06 848 25.04 26.1 79 24 4.4 40
12:30 1018 30.06 848 25.04 26.5 79.6 24 4.4 39.9
12:35 1018 30.06 848 25.04 26.1 78.9 25 4.7 40.5
12:40 1018 30.06 848 25.04 25.8 78.5 28 6.1 43
12:45 1018 30.06 848 25.04 26 78.8 24 4.1 39.3
12:50 1018 30.06 847 25.01 26.1 79.1 24 4.3 39.7
12:55 1018 30.06 847 25.01 26.5 79.7 24 4.4 39.9
13:00 1018 30.06 847 25.01 26.6 79.9 23 4.4 39.9
13:05 1018 30.06 847 25.01 26.3 79.3 24 4.2 39.6
13:10 1018 30.06 847 25.01 26.4 79.6 23 4.1 39.5
13:15 1018 30.06 847 25.01 26.7 80 21 3 37.4
13:20 1018 30.06 847 25.01 26.4 79.6 22 3.5 38.4
13:25 1018 30.06 847 25.01 26.7 80.1 21 2.7 36.8
13:30 1018 30.06 847 25.01 26 78.8 20 1.8 35.2
13:35 1018 30.06 847 25.01 27 80.6 20 2.1 35.8
13:40 1018 30.06 847 25.01 26.9 80.5 15 -1.3 29.7
13:45 1017 30.03 847 25.01 25.4 77.7 14 -3.4 25.9
13:50 1017 30.03 847 25.01 26 78.8 14 -3.2 26.3
13:55 1017 30.03 847 25.01 26.2 79.1 14 -3.3 26.1
14:00 1017 30.03 847 25.01 26 78.7 15 -2 28.3
14:05 1017 30.03 847 25.01 26.2 79.2 15 -2.3 27.8
14:10 1017 30.03 847 25.01 26.1 79 10 -7.4 18.7
14:15 1017 30.03 847 25.01 25.7 78.3 14 -3.4 25.9
14:20 1017 30.03 847 25.01 26.4 79.5 15 -2.1 28.3
14:25 1017 30.03 847 25.01 25.6 78.1 20 1.1 34
14:30 1017 30.03 847 25.01 23.7 74.6 20 -0.2 31.6
14:35 1017 30.03 846 24.98 23.2 73.7 19 -1.5 29.4
14:40 1017 30.03 846 24.98 23.1 73.5 19 -1.8 28.7
14:45 1017 30.03 846 24.98 23.1 73.6 18 -2.7 27.2
14:50 1017 30.03 846 24.98 23.2 73.7 15 -4.4 24
14:55 1017 30.03 846 24.98 23.4 74.1 15 -4.2 24.4
15:00 1017 30.03 846 24.98 23.5 74.2 15 -4.1 24.5
15:05 1017 30.03 846 24.98 23.6 74.4 17 -2.5 27.6
15:10 1017 30.03 846 24.98 23.5 74.3 18 -1.6 29
15:15 1017 30.03 846 24.98 24.2 75.6 17 -2.1 28.3
15:20 1017 30.03 846 24.98 24.6 76.2 17 -1.7 29
15:25 1017 30.03 846 24.98 25.6 78.1 15 -2.3 27.8
15:30 1017 30.03 846 24.98 24.7 76.5 16 -2.2 28
15:35 1017 30.03 846 24.98 24.6 76.3 17 -1.8 28.7
15:40 1016 30 846 24.98 24.6 76.2 18 -1.4 29.5
15:45 1016 30 846 24.98 24.4 76 19 -0.6 30.9
15:50 1016 30 846 24.98 25.1 77.3 14 -3.8 25.2
15:55 1016 30 845 24.95 25.4 77.8 16 -2.3 27.9
16:00 1016 30 845 24.95 25.3 77.6 17 -1.3 29.6
16:05 1016 30 845 24.95 25 77 16 -2.7 27.1
16:10 1016 30 845 24.95 25 77 16 -2.3 27.9
16:15 1016 30 845 24.95 25.2 77.4 14 -3.9 25
16:20 1016 30 845 24.95 26 78.9 14 -2.8 26.9
16:25 1016 30 845 24.95 26.4 79.5 13 -3.6 25.5
16:30 1016 30 845 24.95 26.2 79.2 14 -3.6 25.6
16:35 1016 30 845 24.95 26.8 80.3 13 -3.1 26.4
16:40 1016 30 845 24.95 26.2 79.2 13 -3.8 25.2
16:45 1016 30 845 24.95 26 78.7 13 -4.1 24.7
16:50 1016 30 845 24.95 26.1 78.9 14 -2.8 26.9
16:55 1016 30 845 24.95 25.8 78.5 14 -3.1 26.4
17:00 1016 30 845 24.95 25.4 77.8 15 -3 26.6
17:05 1015 29.97 845 24.95 25.7 78.2 14 -3.4 25.9
17:10 1015 29.97 845 24.95 26.6 79.9 13 -3.4 25.8
17:15 1015 29.97 845 24.95 27.2 80.9 12 -3.9 25
17:20 1015 29.97 844 24.92 26.8 80.2 13 -3.4 25.8
17:25 1015 29.97 844 24.92 26.4 79.5 14 -2.9 26.8
17:30 1015 29.97 844 24.92 26.1 79 14 -2.9 26.7
17:35 1015 29.97 844 24.92 25.6 78.1 14 -3.2 26.2
17:40 1015 29.97 844 24.92 26 78.8 15 -2.5 27.6
17:45 1015 29.97 844 24.92 26.4 79.5 14 -3.3 26.1
17:50 1015 29.97 844 24.92 26.5 79.6 14 -3.4 25.9
17:55 1015 29.97 844 24.92 25.8 78.4 14 -3.2 26.3
18:00 1015 29.97 844 24.92 26.1 79 14 -3.1 26.4
18:05 1015 29.97 844 24.92 26.8 80.2 13 -3.5 25.7
18:10 1015 29.97 844 24.92 26.8 80.2 14 -3.1 26.4
18:15 1015 29.97 844 24.92 26.3 79.3 14 -3.1 26.4
18:20 1015 29.97 844 24.92 25.4 77.8 15 -3 26.6
18:25 1015 29.97 844 24.92 24.9 76.9 15 -3 26.6
18:30 1015 29.97 844 24.92 24.8 76.6 15 -3.1 26.4
18:35 1015 29.97 844 24.92 24.7 76.5 15 -3.3 26.1
18:40 1015 29.97 844 24.92 24.6 76.3 20 0.6 33.1
18:45 1015 29.97 844 24.92 24 75.2 22 1.4 34.6
18:50 1015 29.97 844 24.92 23.6 74.5 23 1.8 35.2
18:55 1015 29.97 844 24.92 23.4 74.1 24 2.2 35.9
19:00 1015 29.97 844 24.92 23.3 73.9 25 2.4 36.3
19:05 1015 29.97 844 24.92 23.1 73.5 25 2.1 35.8
19:10 1015 29.97 844 24.92 22.9 73.3 26 2.6 36.7
19:15 1015 29.97 844 24.92 22.8 73 26 2.7 36.9
19:20 1015 29.97 844 24.92 22.6 72.7 27 2.8 37.1
19:25 1015 29.97 844 24.92 22.4 72.3 28 3.3 38
19:30 1015 29.97 844 24.92 22 71.7 29 3.5 38.2
19:35 1015 29.97 844 24.92 21.8 71.3 29 3.3 38
19:40 1015 29.97 844 24.92 21.7 71 30 3.4 38
19:45 1015 29.97 844 24.92 21.5 70.6 30 3.4 38.2
19:50 1015 29.97 844 24.92 21.3 70.3 30 3.4 38.1
19:55 1015 29.97 844 24.92 21.1 70 31 3.3 38
20:00 1015 29.97 844 24.92 21 69.9 31 3.3 38
20:05 1015 29.97 844 24.92 21 69.8 31 3.4 38.1
20:10 1015 29.97 844 24.92 20.9 69.7 31 3.3 38
20:15 1015 29.97 844 24.92 20.9 69.5 31 3.4 38.1
20:20 1015 29.97 844 24.92 20.7 69.3 32 3.6 38.4
20:25 1015 29.97 845 24.95 20.5 68.9 32 3.3 38
20:30 1015 29.97 845 24.95 20.4 68.7 32 3.3 37.9
20:35 1015 29.97 845 24.95 20.2 68.3 32 3 37.4
20:40 1015 29.97 845 24.95 19.9 67.8 31 2.6 36.7
20:45 1015 29.97 845 24.95 19.6 67.3 31 2.3 36.1
20:50 1016 30 845 24.95 19.4 67 30 1.8 35.2
20:55 1016 30 845 24.95 19.5 67.2 30 1.5 34.7
21:00 1016 30 845 24.95 19.4 66.9 31 1.8 35.2
21:05 1016 30 845 24.95 19.2 66.5 30 1.4 34.5
21:10 1016 30 845 24.95 19.1 66.5 30 1.3 34.3
21:15 1016 30 845 24.95 19.2 66.5 29 1 33.9
21:20 1016 30 845 24.95 19.1 66.5 31 1.5 34.8
21:25 1016 30 845 24.95 18.9 66 31 1.4 34.5
21:30 1016 30 845 24.95 18.7 65.7 31 1.4 34.6
21:35 1016 30 845 24.95 18.5 65.3 31 1.2 34.2
21:40 1016 30 845 24.95 18.4 65.2 31 1.3 34.3
21:45 1016 30 845 24.95 18.2 64.8 31 1.1 33.9
21:50 1016 30 845 24.95 18.3 64.9 31 1 33.8
21:55 1016 30 845 24.95 18.3 64.9 31 1 33.7
22:00 1016 30 845 24.95 18.3 65 31 1 33.7
22:05 1016 30 845 24.95 18.3 64.9 31 1 33.8
22:10 1016 30 845 24.95 18.3 65 31 1.1 34
22:15 1016 30 845 24.95 18.2 64.8 31 1.1 33.9
22:20 1016 30 845 24.95 18.2 64.8 33 1.7 35
22:25 1016 30 845 24.95 18.2 64.7 30 0.7 33.2
22:30 1016 30 845 24.95 18.3 64.9 33 1.8 35.3
22:35 1016 30 845 24.95 17.7 63.8 34 1.9 35.4
22:40 1016 30 845 24.95 17.1 62.8 37 2.3 36.1
22:45 1016 30 845 24.95 16.8 62.2 37 2.1 35.8
22:50 1016 30 845 24.95 16.7 62.1 37 1.9 35.4
22:55 1016 30 845 24.95 16.7 62 36 1.7 35
23:00 1016 30 845 24.95 16.6 61.9 38 2.4 36.3
23:05 1016 30 845 24.95 16.7 62.1 36 1.8 35.3
23:10 1016 30 845 24.95 16.3 61.4 36 1.4 34.6
23:15 1016 30 845 24.95 16 60.7 36 1.1 33.9
23:20 1016 30 845 24.95 15.9 60.6 37 1.2 34.1
23:25 1016 30 845 24.95 15.7 60.3 38 1.6 34.9
23:30 1016 30 845 24.95 15.4 59.7 39 1.6 34.9
23:35 1016 30 845 24.95 14.8 58.7 43 2.4 36.2
23:40 1016 30 845 24.95 14.2 57.6 44 2.2 35.9
23:45 1016 30 845 24.95 14.3 57.7 42 1.6 35
23:50 1016 30 845 24.95 14.6 58.4 41 1.6 34.8
23:55 1016 30 845 24.95 14.8 58.6 41 1.8 35.3
24:00 1016 30 845 24.95 14.9 58.8 41 1.9 35.5